createdAt,value
2022-09-12T00:01:22.898Z,14.95
2022-09-12T00:03:53.381Z,15.95
2022-09-12T00:06:23.998Z,16.33
2022-09-12T00:08:56.587Z,15.77
2022-09-12T00:11:26.155Z,15.15
2022-09-12T00:13:58.249Z,15.80
2022-09-12T00:18:56.406Z,17.75
2022-09-12T00:21:25.868Z,19.50
2022-09-12T00:23:59.587Z,19.70
2022-09-12T00:26:29.210Z,19.67
2022-09-12T00:28:58.649Z,22.20
2022-09-12T00:31:28.291Z,22.05
2022-09-12T00:34:00.690Z,22.02
2022-09-12T00:36:31.113Z,20.35
2022-09-12T00:39:03.115Z,21.13
2022-09-12T00:41:33.425Z,21.90
2022-09-12T00:44:03.375Z,23.50
2022-09-12T00:46:36.199Z,23.42
2022-09-12T00:49:07.086Z,21.75
2022-09-12T00:51:38.745Z,21.85
2022-09-12T00:54:12.554Z,22.48
2022-09-12T00:56:42.971Z,23.88
2022-09-12T00:59:14.614Z,23.00
2022-09-12T01:01:44.525Z,21.50
2022-09-12T01:04:14.095Z,22.77
2022-09-12T01:06:44.020Z,21.17
2022-09-12T01:09:16.778Z,23.48
2022-09-12T01:11:47.046Z,21.75
2022-09-12T01:14:16.476Z,20.02
2022-09-12T01:16:46.301Z,20.95
2022-09-12T01:19:24.645Z,22.70
2022-09-12T01:22:01.798Z,21.38
2022-09-12T01:24:44.975Z,20.50
2022-09-12T01:27:22.894Z,20.27
2022-09-12T01:30:07.081Z,20.35
2022-09-12T01:32:46.612Z,18.42
2022-09-12T01:35:21.545Z,18.35
2022-09-12T01:37:55.832Z,17.65
2022-09-12T01:40:29.911Z,17.48
2022-09-12T01:43:03.418Z,18.77
2022-09-12T01:45:35.048Z,17.60
2022-09-12T01:48:08.926Z,15.23
2022-09-12T01:50:42.067Z,17.13
2022-09-12T01:53:15.023Z,14.73
2022-09-12T01:55:46.712Z,15.30
2022-09-12T01:58:19.864Z,14.18
2022-09-12T02:00:53.792Z,14.65
2022-09-12T02:03:26.450Z,15.23
2022-09-12T02:05:58.712Z,13.90
2022-09-12T02:08:33.500Z,14.68
2022-09-12T02:11:05.553Z,13.15
2022-09-12T02:16:06.564Z,12.48
2022-09-12T02:18:39.151Z,13.45
2022-09-12T02:21:09.849Z,12.15
2022-09-12T02:23:40.559Z,12.98
2022-09-12T02:26:12.824Z,11.82
2022-09-12T02:28:43.828Z,11.23
2022-09-12T02:31:16.661Z,11.48
2022-09-12T02:33:50.591Z,11.13
2022-09-12T02:36:24.871Z,10.50
2022-09-12T02:38:54.816Z,11.05
2022-09-12T02:41:24.607Z,10.23
2022-09-12T02:43:56.491Z,10.75
2022-09-12T02:46:28.926Z,10.32
2022-09-12T02:49:00.472Z,10.70
2022-09-12T02:51:29.688Z,9.88
2022-09-12T02:53:58.913Z,9.73
2022-09-12T02:56:29.946Z,10.52
2022-09-12T02:59:01.695Z,9.48
2022-09-12T03:01:44.750Z,9.65
2022-09-12T03:04:32.354Z,9.30
2022-09-12T03:07:05.308Z,9.68
2022-09-12T03:09:39.913Z,9.85
2022-09-12T03:12:12.929Z,8.45
2022-09-12T03:15:03.449Z,8.95
2022-09-12T03:17:41.492Z,7.57
2022-09-12T03:20:13.423Z,9.10
2022-09-12T03:22:50.997Z,7.93
2022-09-12T03:25:22.389Z,7.38
2022-09-12T03:27:56.316Z,8.83
2022-09-12T03:30:25.495Z,8.02
2022-09-12T03:32:55.353Z,7.45
2022-09-12T03:35:26.812Z,6.57
2022-09-12T03:37:55.788Z,7.45
2022-09-12T03:40:24.921Z,7.65
2022-09-12T03:42:53.946Z,7.28
2022-09-12T03:45:22.938Z,7.63
2022-09-12T03:47:52.274Z,8.20
2022-09-12T03:50:21.384Z,7.57
2022-09-12T03:52:51.999Z,7.93
2022-09-12T03:55:21.069Z,7.68
2022-09-12T03:57:50.430Z,8.52
2022-09-12T04:00:20.123Z,8.10
2022-09-12T04:02:49.492Z,8.95
2022-09-12T04:05:18.554Z,8.02
2022-09-12T04:07:47.714Z,8.57
2022-09-12T04:10:18.186Z,8.48
2022-09-12T04:12:47.135Z,8.38
2022-09-12T04:15:16.497Z,8.65
2022-09-12T04:17:45.377Z,8.52
2022-09-12T04:20:14.339Z,8.32
2022-09-12T04:22:43.589Z,8.55
2022-09-12T04:25:13.499Z,9.23
2022-09-12T04:27:43.881Z,8.82
2022-09-12T04:30:13.460Z,9.27
2022-09-12T04:32:42.455Z,8.65
2022-09-12T04:35:12.877Z,9.45
2022-09-12T04:37:41.881Z,8.13
2022-09-12T04:40:11.282Z,9.05
2022-09-12T04:42:40.436Z,7.82
2022-09-12T04:45:11.512Z,8.98
2022-09-12T04:47:40.512Z,8.70
2022-09-12T04:50:10.037Z,8.82
2022-09-12T04:52:39.112Z,9.75
2022-09-12T04:55:09.370Z,8.13
2022-09-12T04:57:38.737Z,7.80
2022-09-12T05:00:08.936Z,9.57
2022-09-12T05:02:39.824Z,9.35
2022-09-12T05:05:09.291Z,8.68
2022-09-12T05:07:38.515Z,8.65
2022-09-12T05:10:08.403Z,8.98
2022-09-12T05:12:37.532Z,8.88
2022-09-12T05:15:06.917Z,8.60
2022-09-12T05:17:35.955Z,8.43
2022-09-12T05:20:06.778Z,8.18
2022-09-12T05:22:35.741Z,8.60
2022-09-12T05:25:05.782Z,8.25
2022-09-12T05:27:34.979Z,8.48
2022-09-12T05:30:04.158Z,9.18
2022-09-12T05:32:33.678Z,7.78
2022-09-12T05:35:02.764Z,8.05
2022-09-12T05:37:33.233Z,8.00
2022-09-12T05:40:05.681Z,7.22
2022-09-12T05:42:34.896Z,7.68
2022-09-12T05:45:04.139Z,7.00
2022-09-12T05:47:33.572Z,7.43
2022-09-12T05:50:02.913Z,7.55
2022-09-12T05:52:33.913Z,6.00
2022-09-12T05:55:03.022Z,5.60
2022-09-12T05:57:32.055Z,5.13
2022-09-12T06:00:01.280Z,5.15
2022-09-12T06:02:30.566Z,4.22
2022-09-12T06:04:59.666Z,3.60
2022-09-12T06:07:29.452Z,3.28
2022-09-12T06:10:00.158Z,3.17
2022-09-12T06:12:30.913Z,2.85
2022-09-12T06:15:00.310Z,3.42
2022-09-12T06:17:29.336Z,2.67
2022-09-12T06:19:58.873Z,3.20
2022-09-12T06:22:27.989Z,2.25
2022-09-12T06:24:58.050Z,2.22
2022-09-12T06:27:28.627Z,2.10
2022-09-12T06:29:57.862Z,2.25
2022-09-12T06:32:26.921Z,2.00
2022-09-12T06:34:56.479Z,1.73
2022-09-12T06:37:25.745Z,2.10
2022-09-12T06:39:56.057Z,1.33
2022-09-12T06:42:25.252Z,1.80
2022-09-12T06:45:00.849Z,1.88
2022-09-12T06:47:30.392Z,1.73
2022-09-12T06:49:59.634Z,1.23
2022-09-12T06:52:29.792Z,1.70
2022-09-12T06:54:58.971Z,1.35
2022-09-12T06:57:30.416Z,1.30
2022-09-12T07:00:01.036Z,1.50
2022-09-12T07:02:30.216Z,1.40
2022-09-12T07:04:59.379Z,1.45
2022-09-12T07:07:28.669Z,1.25
2022-09-12T07:09:58.483Z,1.52
2022-09-12T07:12:27.661Z,1.42
2022-09-12T07:14:56.663Z,1.48
2022-09-12T07:17:27.276Z,1.50
2022-09-12T07:19:56.443Z,1.48
2022-09-12T07:22:25.484Z,1.30
2022-09-12T07:24:55.784Z,1.33
2022-09-12T07:27:24.944Z,1.52
2022-09-12T07:29:54.150Z,2.33
2022-09-12T07:32:23.911Z,1.65
2022-09-12T07:34:54.370Z,1.40
2022-09-12T07:37:23.764Z,1.67
2022-09-12T07:39:52.986Z,1.67
2022-09-12T07:42:23.371Z,1.10
2022-09-12T07:44:53.812Z,1.50
2022-09-12T07:47:23.056Z,1.40
2022-09-12T07:49:52.936Z,1.50
2022-09-12T07:52:23.497Z,1.60
2022-09-12T07:54:52.652Z,1.23
2022-09-12T07:57:21.930Z,1.65
2022-09-12T07:59:53.376Z,1.17
2022-09-12T08:02:22.903Z,1.15
2022-09-12T08:04:52.993Z,1.30
2022-09-12T08:07:23.954Z,1.10
2022-09-12T08:09:53.482Z,1.40
2022-09-12T08:12:22.573Z,1.27
2022-09-12T08:14:51.746Z,1.50
2022-09-12T08:17:22.059Z,1.08
2022-09-12T08:19:51.536Z,1.50
2022-09-12T08:22:22.022Z,1.08
2022-09-12T08:24:52.625Z,0.90
2022-09-12T08:27:21.910Z,0.90
2022-09-12T08:29:51.068Z,0.90
2022-09-12T08:32:20.288Z,1.00
2022-09-12T08:34:49.543Z,1.05
2022-09-12T08:37:18.661Z,1.02
2022-09-12T08:39:47.955Z,1.00
2022-09-12T08:42:24.505Z,1.02
2022-09-12T08:45:01.989Z,0.90
2022-09-12T08:47:32.716Z,1.25
2022-09-12T08:50:06.243Z,1.10
2022-09-12T08:52:38.636Z,1.00
2022-09-12T08:55:10.847Z,0.82
2022-09-12T08:57:41.480Z,1.02
2022-09-12T09:00:15.759Z,1.02
2022-09-12T09:03:04.864Z,0.90
2022-09-12T09:05:44.410Z,0.82
2022-09-12T09:08:22.763Z,1.10
2022-09-12T09:10:53.713Z,1.08
2022-09-12T09:13:52.514Z,0.80
2022-09-12T09:16:24.424Z,1.00
2022-09-12T09:18:54.750Z,1.50
2022-09-12T09:21:26.818Z,0.77
2022-09-12T09:24:00.115Z,1.50
2022-09-12T09:26:32.699Z,1.08
2022-09-12T09:29:04.707Z,0.90
2022-09-12T09:31:35.725Z,0.98
2022-09-12T09:34:08.029Z,0.90
2022-09-12T09:36:41.145Z,1.10
2022-09-12T09:39:12.077Z,1.20
2022-09-12T09:41:46.888Z,1.90
2022-09-12T09:44:17.701Z,0.90
2022-09-12T09:46:46.884Z,0.90
2022-09-12T09:49:17.804Z,0.90
2022-09-12T09:51:47.081Z,1.00
2022-09-12T09:54:20.381Z,1.02
2022-09-12T09:56:50.184Z,0.88
2022-09-12T09:59:22.195Z,0.98
2022-09-12T10:01:54.911Z,1.15
2022-09-12T10:04:25.226Z,1.73
2022-09-12T10:06:55.418Z,1.60
2022-09-12T10:09:26.019Z,2.40
2022-09-12T10:11:55.611Z,2.60
2022-09-12T10:14:45.554Z,2.00
2022-09-12T10:17:31.773Z,1.70
2022-09-12T10:22:52.734Z,2.15
2022-09-12T10:25:21.793Z,1.58
2022-09-12T10:27:56.862Z,2.65
2022-09-12T10:30:28.786Z,2.15
2022-09-12T10:33:07.547Z,2.33
2022-09-12T10:35:45.639Z,1.85
2022-09-12T10:38:19.376Z,1.83
2022-09-12T10:40:56.993Z,1.50
2022-09-12T10:43:29.430Z,3.05
2022-09-12T10:45:59.366Z,2.50
2022-09-12T10:48:33.659Z,4.95
2022-09-12T10:51:03.031Z,4.03
2022-09-12T10:53:34.949Z,5.18
2022-09-12T10:56:06.619Z,4.22
2022-09-12T10:58:40.584Z,4.85
2022-09-12T11:01:11.896Z,4.00
2022-09-12T11:03:54.894Z,3.72
2022-09-12T11:06:30.201Z,2.75
2022-09-12T11:09:06.252Z,3.53
2022-09-12T11:11:44.104Z,3.83
2022-09-12T11:14:20.605Z,7.07
2022-09-12T11:16:54.153Z,5.43
2022-09-12T11:19:39.508Z,6.45
2022-09-12T11:22:15.111Z,6.63
2022-09-12T11:24:51.366Z,7.75
2022-09-12T11:27:27.259Z,6.20
2022-09-12T11:29:59.597Z,6.38
2022-09-12T11:32:47.373Z,6.50
2022-09-12T11:35:27.511Z,7.63
2022-09-12T11:38:01.491Z,10.85
2022-09-12T11:40:33.385Z,8.50
2022-09-12T11:45:32.060Z,8.32
2022-09-12T11:48:03.942Z,6.60
2022-09-12T11:50:34.598Z,5.85
2022-09-12T11:53:12.501Z,5.70
2022-09-12T11:55:47.102Z,6.88
2022-09-12T11:58:16.644Z,5.78
2022-09-12T12:00:48.549Z,6.00
2022-09-12T12:05:54.492Z,6.15
2022-09-12T12:08:24.127Z,5.95
2022-09-12T12:10:56.023Z,5.80
2022-09-12T12:13:27.732Z,6.22
2022-09-12T12:15:58.587Z,8.73
2022-09-12T12:18:29.018Z,7.18
2022-09-12T12:21:20.010Z,8.13
2022-09-12T12:24:04.907Z,4.68
2022-09-12T12:26:56.681Z,1.90
2022-09-12T12:29:43.879Z,1.33
2022-09-12T12:32:23.461Z,0.60
2022-09-12T12:47:34.821Z,0.65
2022-09-12T12:50:06.954Z,1.30
2022-09-12T12:55:16.980Z,1.50
2022-09-12T12:57:51.023Z,1.55
2022-09-12T13:00:35.040Z,0.77
2022-09-12T13:03:12.620Z,1.15
2022-09-12T13:05:45.653Z,1.17
2022-09-12T13:08:30.462Z,1.45
2022-09-12T13:11:02.440Z,0.73
2022-09-12T13:13:34.595Z,0.43
2022-09-12T13:18:36.704Z,0.85
2022-09-12T13:21:11.039Z,0.60
2022-09-12T13:23:40.775Z,0.65
2022-09-12T13:26:14.398Z,0.98
2022-09-12T13:28:43.477Z,0.80
2022-09-12T13:31:15.419Z,0.50
2022-09-12T13:36:23.956Z,0.52
2022-09-12T13:38:59.392Z,0.65
2022-09-12T13:41:39.579Z,0.60
2022-09-12T13:44:11.162Z,0.80
2022-09-12T13:46:40.198Z,0.90
2022-09-12T13:49:23.285Z,1.08
2022-09-12T13:52:01.946Z,0.80
2022-09-12T13:54:31.635Z,0.60
2022-09-12T13:57:00.832Z,0.80
2022-09-12T13:59:29.939Z,0.70
2022-09-12T14:01:59.341Z,1.17
2022-09-12T14:04:46.630Z,1.52
2022-09-12T14:07:20.324Z,1.52
2022-09-12T14:09:55.170Z,0.82
2022-09-12T14:12:26.696Z,1.33
2022-09-12T14:14:55.902Z,0.90
2022-09-12T14:17:30.211Z,1.00
2022-09-12T14:20:02.191Z,0.70
2022-09-12T14:25:03.563Z,0.70
2022-09-12T14:27:38.110Z,0.70
2022-09-12T14:30:09.311Z,0.60
2022-09-12T14:32:38.603Z,3.07
2022-09-12T14:35:08.684Z,1.92
2022-09-12T14:37:39.369Z,0.85
2022-09-12T14:40:18.952Z,0.63
2022-09-12T14:42:49.631Z,0.60
2022-09-12T14:45:20.273Z,0.60
2022-09-12T14:47:51.293Z,0.73
2022-09-12T14:50:21.959Z,0.77
2022-09-12T14:53:06.206Z,0.52
2022-09-12T14:55:36.142Z,0.60
2022-09-12T14:58:18.362Z,0.60
2022-09-12T15:03:25.463Z,0.63
2022-09-12T15:05:55.191Z,0.90
2022-09-12T15:08:26.285Z,1.05
2022-09-12T15:10:55.687Z,0.75
2022-09-12T15:13:26.308Z,1.10
2022-09-12T15:15:56.323Z,0.60
2022-09-12T15:18:26.654Z,0.47
2022-09-12T15:20:58.166Z,0.60
2022-09-12T15:23:38.214Z,0.70
2022-09-12T15:26:08.539Z,0.95
2022-09-12T15:28:38.409Z,0.60
2022-09-12T15:31:09.414Z,0.90
2022-09-12T15:33:38.664Z,2.10
2022-09-12T15:36:13.715Z,0.70
2022-09-12T15:38:44.571Z,0.90
2022-09-12T15:41:15.694Z,0.60
2022-09-12T15:43:45.046Z,0.52
2022-09-12T15:46:14.797Z,0.80
2022-09-12T15:48:44.389Z,0.60
2022-09-12T15:51:15.641Z,1.73
2022-09-12T15:53:47.500Z,1.55
2022-09-12T15:56:17.250Z,0.98
2022-09-12T15:58:58.322Z,0.90
2022-09-12T16:01:29.474Z,0.80
2022-09-12T16:03:58.858Z,0.73
2022-09-12T16:06:33.617Z,0.93
2022-09-12T16:09:07.359Z,0.80
2022-09-12T16:11:36.432Z,1.00
2022-09-12T16:14:06.669Z,1.15
2022-09-12T16:16:36.172Z,1.23
2022-09-12T16:19:05.740Z,1.13
2022-09-12T16:21:34.787Z,1.10
2022-09-12T16:24:04.178Z,1.50
2022-09-12T16:26:34.892Z,0.70
2022-09-12T16:29:03.878Z,0.77
2022-09-12T16:31:33.326Z,0.82
2022-09-12T16:34:02.532Z,0.80
2022-09-12T16:36:31.820Z,1.50
2022-09-12T16:39:01.000Z,1.00
2022-09-12T16:41:30.641Z,1.20
2022-09-12T16:44:02.072Z,1.13
2022-09-12T16:46:31.994Z,1.00
2022-09-12T16:49:01.354Z,1.38
2022-09-12T16:51:33.028Z,0.98
2022-09-12T16:54:02.006Z,0.50
2022-09-12T16:56:32.349Z,0.80
2022-09-12T16:59:04.237Z,0.80
2022-09-12T17:01:34.841Z,0.50
2022-09-12T17:04:04.254Z,0.60
2022-09-12T17:06:34.565Z,0.80
2022-09-12T17:09:04.437Z,0.88
2022-09-12T17:11:34.532Z,0.98
2022-09-12T17:14:07.136Z,1.10
2022-09-12T17:16:39.071Z,1.27
2022-09-12T17:19:10.224Z,1.10
2022-09-12T17:21:39.324Z,1.10
2022-09-12T17:24:08.862Z,1.00
2022-09-12T17:26:38.070Z,1.10
2022-09-12T17:29:08.892Z,0.90
2022-09-12T17:31:38.870Z,1.02
2022-09-12T17:34:08.893Z,2.70
2022-09-12T17:36:39.578Z,2.20
2022-09-12T17:39:08.772Z,1.80
2022-09-12T17:41:37.921Z,3.42
2022-09-12T17:44:08.398Z,3.05
2022-09-12T17:46:38.229Z,1.10
2022-09-12T17:49:08.135Z,1.00
2022-09-12T17:51:37.438Z,1.98
2022-09-12T17:54:08.478Z,1.63
2022-09-12T17:56:38.219Z,1.45
2022-09-12T17:59:09.271Z,2.15
2022-09-12T18:01:55.933Z,1.88
2022-09-12T18:04:25.011Z,2.15
2022-09-12T18:06:54.151Z,2.60
2022-09-12T18:09:25.178Z,1.90
2022-09-12T18:11:54.808Z,2.38
2022-09-12T18:14:26.243Z,2.28
2022-09-12T18:16:57.077Z,2.63
2022-09-12T18:19:27.167Z,1.70
2022-09-12T18:21:56.163Z,1.08
2022-09-12T18:24:25.348Z,1.42
2022-09-12T18:26:56.707Z,1.02
2022-09-12T18:29:29.862Z,1.02
2022-09-12T18:31:59.899Z,2.70
2022-09-12T18:34:29.158Z,4.43
2022-09-12T18:36:59.046Z,5.00
2022-09-12T18:39:28.310Z,3.05
2022-09-12T18:41:57.838Z,3.65
2022-09-12T18:44:29.003Z,4.40
2022-09-12T18:46:58.166Z,4.07
2022-09-12T18:49:27.764Z,3.35
2022-09-12T18:51:57.063Z,2.05
2022-09-12T18:54:27.014Z,1.75
2022-09-12T18:56:56.198Z,2.35
2022-09-12T18:59:25.406Z,2.38
2022-09-12T19:01:56.057Z,1.85
2022-09-12T19:04:25.501Z,1.88
2022-09-12T19:06:54.558Z,1.52
2022-09-12T19:09:23.685Z,1.75
2022-09-12T19:11:52.781Z,1.40
2022-09-12T19:14:23.086Z,1.98
2022-09-12T19:16:52.675Z,2.15
2022-09-12T19:19:25.240Z,2.80
2022-09-12T19:21:54.755Z,2.05
2022-09-12T19:24:23.846Z,1.50
2022-09-12T19:26:52.835Z,1.98
2022-09-12T19:29:21.955Z,2.20
2022-09-12T19:31:51.225Z,1.70
2022-09-12T19:34:20.295Z,1.17
2022-09-12T19:36:50.971Z,1.40
2022-09-12T19:39:20.792Z,0.90
2022-09-12T19:41:50.064Z,1.20
2022-09-12T19:44:20.194Z,1.10
2022-09-12T19:46:49.182Z,1.10
2022-09-12T19:49:18.185Z,1.55
2022-09-12T19:51:47.745Z,1.15
2022-09-12T19:54:18.000Z,1.48
2022-09-12T19:56:47.165Z,1.60
2022-09-12T19:59:16.315Z,1.40
2022-09-12T20:01:45.311Z,1.77
2022-09-12T20:04:14.682Z,1.63
2022-09-12T20:06:43.694Z,1.65
2022-09-12T20:09:12.867Z,2.10
2022-09-12T20:11:43.557Z,2.38
2022-09-12T20:14:12.800Z,1.67
2022-09-12T20:16:41.982Z,1.60
2022-09-12T20:19:11.494Z,1.80
2022-09-12T20:21:40.876Z,3.08
2022-09-12T20:24:13.531Z,1.52
2022-09-12T20:26:43.970Z,1.38
2022-09-12T20:29:13.365Z,1.70
2022-09-12T20:31:43.675Z,2.55
2022-09-12T20:34:15.680Z,1.65
2022-09-12T20:36:45.349Z,1.63
2022-09-12T20:39:15.852Z,1.50
2022-09-12T20:41:46.677Z,2.15
2022-09-12T20:44:16.160Z,13.95
2022-09-12T20:46:45.464Z,21.60
2022-09-12T20:49:14.531Z,10.75
2022-09-12T20:51:44.276Z,7.30
2022-09-12T20:54:13.340Z,6.95
2022-09-12T20:56:42.724Z,3.88
2022-09-12T20:59:14.172Z,3.30
2022-09-12T21:01:46.027Z,2.30
2022-09-12T21:04:15.911Z,2.40
2022-09-12T21:06:45.644Z,2.40
2022-09-12T21:09:15.475Z,2.25
2022-09-12T21:11:45.008Z,2.65
2022-09-12T21:14:15.690Z,3.47
2022-09-12T21:16:44.803Z,2.50
2022-09-12T21:19:13.855Z,2.03
2022-09-12T21:21:43.072Z,1.85
2022-09-12T21:24:15.167Z,2.28
2022-09-12T21:26:44.179Z,1.92
2022-09-12T21:29:13.511Z,1.77
2022-09-12T21:31:44.361Z,1.90
2022-09-12T21:34:13.523Z,2.10
2022-09-12T21:36:43.083Z,2.05
2022-09-12T21:39:12.243Z,2.65
2022-09-12T21:41:41.986Z,2.53
2022-09-12T21:44:11.922Z,2.13
2022-09-12T21:46:41.223Z,2.28
2022-09-12T21:49:11.859Z,1.75
2022-09-12T21:51:40.952Z,1.70
2022-09-12T21:54:10.156Z,1.67
2022-09-12T21:56:39.540Z,1.58
2022-09-12T21:59:08.998Z,2.10
2022-09-12T22:01:38.137Z,1.33
2022-09-12T22:04:07.242Z,1.60
2022-09-12T22:06:37.775Z,2.10
2022-09-12T22:09:07.272Z,2.08
2022-09-12T22:11:36.303Z,2.05
2022-09-12T22:14:05.448Z,1.90
2022-09-12T22:16:34.586Z,2.10
2022-09-12T22:19:03.865Z,2.40
2022-09-12T22:21:32.987Z,2.05
2022-09-12T22:24:21.762Z,2.22
2022-09-12T22:26:51.633Z,1.88
2022-09-12T22:29:21.632Z,2.00
2022-09-12T22:31:50.670Z,1.92
2022-09-12T22:34:19.850Z,1.70
2022-09-12T22:36:49.389Z,2.17
2022-09-12T22:39:20.540Z,1.38
2022-09-12T22:41:49.990Z,1.80
2022-09-12T22:44:19.098Z,2.28
2022-09-12T22:46:48.638Z,1.80
2022-09-12T22:49:17.799Z,1.73
2022-09-12T22:51:47.869Z,1.55
2022-09-12T22:54:17.622Z,2.00
2022-09-12T22:56:48.232Z,1.98
2022-09-12T22:59:17.470Z,1.60
2022-09-12T23:01:47.091Z,2.03
2022-09-12T23:04:16.567Z,1.77
2022-09-12T23:06:45.706Z,1.75
2022-09-12T23:09:14.710Z,2.13
2022-09-12T23:11:44.216Z,2.00
2022-09-12T23:14:14.899Z,1.70
2022-09-12T23:16:44.281Z,1.63
2022-09-12T23:19:13.993Z,1.83
2022-09-12T23:21:43.422Z,1.75
2022-09-12T23:24:13.146Z,1.75
2022-09-12T23:26:44.058Z,1.55
2022-09-12T23:29:13.139Z,1.70
2022-09-12T23:31:43.981Z,1.88
2022-09-12T23:34:13.365Z,2.28
2022-09-12T23:36:42.466Z,2.05
2022-09-12T23:39:12.070Z,2.08
2022-09-12T23:41:41.569Z,2.25
2022-09-12T23:44:10.919Z,2.05
2022-09-12T23:46:40.243Z,2.17
2022-09-12T23:49:11.032Z,3.10
2022-09-12T23:51:40.362Z,1.90
2022-09-12T23:54:10.046Z,1.90
2022-09-12T23:56:38.959Z,1.73
2022-09-12T23:59:08.051Z,2.20
